Thunder radar more information blitzortung!


Radar de pluja more information rain snow radar


Visita la nostra xarxa de llocs de meteo:

Template documentation
and downloads

And another site



No particular awareness of the weather is required.    There are no Weather-warnings

Pagina Historial Weather Underground text

Diari Resum Agost 22, 2017 Unitats:  Mètric    Imperial   Tant
« Previous Dia
SegĂźent Dia »
Diari Setmana Mensual Anual Personalitzada
  Maxima: Minima: Media:
Temperatura: -17.8 °C -7.3 °C -3.1 °C
Punt de rosada: -17.8 °C -8.9 °C -8 °C
Humitat: Humidity % 42 % 60 %
Wind Speed: 0 km/h 0 km/h 11.6 km/h
RĂ fegues de vent: 0 km/h - -
Vent:- - SW
Pression baro: 0 hPa 34327.3 hPa -
Precipitacions: 0 mm    
Historical Graphs
 
 
Dades de taula per Agost 22, 2017
Temps Temperatura Punt de rosada Pression baro Vent Wind Speed RĂ fegues de vent Humitat Rainfall Rate (Hourly)
-17.8 °C -17.8 °C 0 hPa Calm     Humidity % 0 mm
00:03 -4.9 °C -8.2 °C 34428.8 hPa SW 3.1 km/h   69 % 0 mm
00:05 -6 °C -7.7 °C 34395 hPa Calm   2.6 km/h 83 % 0 mm
00:15 -6 °C -7.7 °C 34395 hPa Calm     83 % 0 mm
00:25 -6.1 °C -7.7 °C 34395 hPa WNW 2.6 km/h 2.6 km/h 83 % 0 mm
00:35 -6.2 °C -7.8 °C 34395 hPa WNW 2.6 km/h 2.6 km/h 83 % 0 mm
00:45 -6.3 °C -7.9 °C 34395 hPa WSW 2.6 km/h 2.6 km/h 83 % 0 mm
00:55 -6.3 °C -8 °C 34395 hPa Calm   2.6 km/h 83 % 0 mm
01:05 -6.4 °C -8.1 °C 34395 hPa Calm   2.6 km/h 83 % 0 mm
01:15 -6.4 °C -8 °C 34395 hPa Calm     84 % 0 mm
01:25 -6.5 °C -8.1 °C 34395 hPa Calm     84 % 0 mm
01:35 -6.7 °C -8.3 °C 34395 hPa SW 5.1 km/h 5.1 km/h 83 % 0 mm
01:45 -6.8 °C -8.5 °C 34395 hPa SW 5.1 km/h 7.7 km/h 83 % 0 mm
01:55 -6.8 °C -8.4 °C 34395 hPa WSW 5.1 km/h 5.1 km/h 84 % 0 mm
02:05 -6.8 °C -8.3 °C 34395 hPa Calm   5.1 km/h 85 % 0 mm
02:15 -6.8 °C -8.2 °C 34395 hPa WSW 2.6 km/h 5.1 km/h 85 % 0 mm
02:25 -6.8 °C -8.3 °C 34395 hPa Calm   2.6 km/h 85 % 0 mm
02:35 -6.8 °C -8.3 °C 34395 hPa Calm     85 % 0 mm
02:45 -7.1 °C -8.6 °C 34395 hPa North 5.1 km/h 5.1 km/h 84 % 0 mm
03:05 -7.1 °C -8.6 °C 34395 hPa Calm   2.6 km/h 85 % 0 mm
03:15 -7.2 °C -8.7 °C 34395 hPa Calm   5.1 km/h 85 % 0 mm
03:25 -7.3 °C -8.6 °C 34395 hPa SW 5.1 km/h 7.7 km/h 86 % 0 mm
03:35 -7.3 °C -8.6 °C 34395 hPa SW 5.1 km/h 5.1 km/h 86 % 0 mm
03:45 -7.2 °C -8.6 °C 34395 hPa WSW 2.6 km/h 5.1 km/h 86 % 0 mm
03:55 -7.2 °C -8.5 °C 34395 hPa WSW 2.6 km/h 5.1 km/h 86 % 0 mm
04:05 -7.2 °C -8.5 °C 34395 hPa SW 5.1 km/h 5.1 km/h 86 % 0 mm
04:15 -6.9 °C -8.1 °C 34395 hPa Calm   5.1 km/h 87 % 0 mm
04:25 -6.3 °C -7.6 °C 34395 hPa Calm   5.1 km/h 86 % 0 mm
04:35 -6.1 °C -7.7 °C 34395 hPa East 2.6 km/h 5.1 km/h 83 % 0 mm
04:45 -5.6 °C -7.4 °C 34428.8 hPa ENE 2.6 km/h 5.1 km/h 81 % 0 mm
04:55 -5.2 °C -7.3 °C 34428.8 hPa ENE 2.6 km/h 5.1 km/h 79 % 0 mm
05:05 -5.2 °C -7.3 °C 34395 hPa SSW 2.6 km/h 5.1 km/h 79 % 0 mm
05:15 -5 °C -7.4 °C 34428.8 hPa SSW 2.6 km/h 5.1 km/h 76 % 0 mm
05:25 -5.1 °C -7.4 °C 34428.8 hPa SW 5.1 km/h 7.7 km/h 77 % 0 mm
05:35 -4.9 °C -7.5 °C 34395 hPa WSW 5.1 km/h 7.7 km/h 75 % 0 mm
05:45 -4.3 °C -7.1 °C 34395 hPa South 2.6 km/h 7.7 km/h 73 % 0 mm
05:55 -3.7 °C -7 °C 34395 hPa SE 2.6 km/h 7.7 km/h 70 % 0 mm
11:03 -2.7 °C -7.3 °C 34395 hPa SW 15 km/h 15 km/h 60 % 0 mm
11:04 -2.7 °C -7.3 °C 34395 hPa SW 15 km/h 15 km/h 60 % 0 mm
11:05 -2.7 °C -7.3 °C 34395 hPa WSW 15 km/h 15 km/h 60 % 0 mm
11:10 -2.5 °C -7.2 °C 34395 hPa SW 15 km/h 15 km/h 60 % 0 mm
11:15 -2.2 °C -7.1 °C 34395 hPa West 15.3 km/h 15.3 km/h 59 % 0 mm
11:20 -2.2 °C -7.1 °C 34395 hPa SW 15 km/h 15 km/h 59 % 0 mm
11:25 -2 °C -6.9 °C 34395 hPa East 9 km/h 9 km/h 59 % 0 mm
11:30 -1.8 °C -6.9 °C 34395 hPa SSW 15 km/h 15 km/h 58 % 0 mm
11:35 -1.3 °C -6.6 °C 34395 hPa West 9.8 km/h 9.8 km/h 57 % 0 mm
11:40 -1.6 °C -6.8 °C 34395 hPa WSW 11.9 km/h 11.9 km/h 57 % 0 mm
11:45 -1.6 °C -6.9 °C 34395 hPa SW 9 km/h 9 km/h 56 % 0 mm
11:50 -1.2 °C -6.8 °C 34395 hPa West 15 km/h 15 km/h 55 % 0 mm
11:55 -1.3 °C -7 °C 34395 hPa WSW 15 km/h 15 km/h 54 % 0 mm
12:00 -1.3 °C -7.2 °C 34395 hPa SW 12.7 km/h 12.7 km/h 53 % 0 mm
12:05 -1.3 °C -7.2 °C 34395 hPa SW 17.9 km/h 17.9 km/h 53 % 0 mm
12:10 -1 °C -7.1 °C 34395 hPa WSW 15 km/h 15 km/h 52 % 0 mm
12:15 -0.8 °C -7.1 °C 34361.1 hPa SSW 20.9 km/h 20.9 km/h 51 % 0 mm
12:20 -0.9 °C -7.4 °C 34361.1 hPa SW 16.6 km/h 16.6 km/h 50 % 0 mm
12:25 -0.8 °C -7.4 °C 34361.1 hPa SSW 9.3 km/h 9.3 km/h 49 % 0 mm
12:30 -0.7 °C -7.3 °C 34395 hPa South 20.9 km/h 20.9 km/h 49 % 0 mm
12:35 -0.8 °C -7.7 °C 34395 hPa SW 26.9 km/h 26.9 km/h 48 % 0 mm
12:40 -0.7 °C -7.5 °C 34395 hPa SW 11.9 km/h 11.9 km/h 48 % 0 mm
12:45 -0.5 °C -7.3 °C 34395 hPa WSW 15 km/h 15 km/h 48 % 0 mm
12:50 -0.3 °C -7.3 °C 34395 hPa South 20.9 km/h 20.9 km/h 47 % 0 mm
12:55 -0.2 °C -7.3 °C 34395 hPa SW 15 km/h 15 km/h 47 % 0 mm
13:00 -0.2 °C -7.2 °C 34395 hPa SSW 15 km/h 15 km/h 47 % 0 mm
13:05 0 °C -7.1 °C 34395 hPa WSW 11.9 km/h 11.9 km/h 47 % 0 mm
13:10 0.4 °C -6.7 °C 34395 hPa SW 15 km/h 15 km/h 47 % 0 mm
13:15 0.6 °C -6.8 °C 34361.1 hPa SSW 12.2 km/h 12.2 km/h 46 % 0 mm
13:20 0.1 °C -7.2 °C 34361.1 hPa South 17.9 km/h 17.9 km/h 46 % 0 mm
13:25 0.1 °C -7.2 °C 34361.1 hPa SW 9.8 km/h 9.8 km/h 46 % 0 mm
13:30 0.1 °C -7.2 °C 34361.1 hPa SW 23.8 km/h 23.8 km/h 46 % 0 mm
13:35 0.4 °C -6.9 °C 34361.1 hPa SW 22 km/h 22 km/h 46 % 0 mm
13:40 0.2 °C -7.1 °C 34361.1 hPa South 15 km/h 15 km/h 46 % 0 mm
13:45 0.2 °C -7.3 °C 34361.1 hPa SW 15 km/h 15 km/h 45 % 0 mm
13:50 0.1 °C -7.3 °C 34361.1 hPa WSW 17.9 km/h 17.9 km/h 45 % 0 mm
13:55 0.1 °C -7.3 °C 34361.1 hPa SSW 15 km/h 15 km/h 45 % 0 mm
14:00 0.1 °C -7.3 °C 34361.1 hPa West 19.2 km/h 19.2 km/h 45 % 0 mm
14:05 0.2 °C -7.3 °C 34361.1 hPa SSW 17.9 km/h 17.9 km/h 45 % 0 mm
14:10 0.2 °C -7.3 °C 34361.1 hPa South 20.9 km/h 20.9 km/h 45 % 0 mm
14:15 0.1 °C -7.6 °C 34361.1 hPa SSW 17.9 km/h 17.9 km/h 44 % 0 mm
14:20 0.3 °C -7.2 °C 34361.1 hPa SSW 15 km/h 15 km/h 45 % 0 mm
14:25 0.3 °C -7.2 °C 34361.1 hPa SW 15 km/h 15 km/h 45 % 0 mm
14:30 0.4 °C -7.1 °C 34361.1 hPa SW 19.2 km/h 19.2 km/h 45 % 0 mm
14:35 0.4 °C -7.3 °C 34361.1 hPa SSW 15 km/h 15 km/h 44 % 0 mm
14:40 0.4 °C -7.3 °C 34361.1 hPa WSW 28.2 km/h 28.2 km/h 44 % 0 mm
14:45 0.3 °C -7.3 °C 34361.1 hPa SW 20.9 km/h 20.9 km/h 44 % 0 mm
14:50 0.5 °C -7.4 °C 34361.1 hPa SSW 15 km/h 15 km/h 43 % 0 mm
14:51 0.5 °C -7.4 °C 34361.1 hPa SW 23.8 km/h 23.8 km/h 43 % 0 mm
14:56 0.3 °C -7.8 °C 34361.1 hPa West 26.9 km/h 26.9 km/h 42 % 0 mm
15:01 0.3 °C -7.6 °C 34361.1 hPa SW 26.9 km/h 26.9 km/h 43 % 0 mm
15:06 0.3 °C -7.6 °C 34361.1 hPa West 26.9 km/h 26.9 km/h 43 % 0 mm
15:11 0.3 °C -7.8 °C 34361.1 hPa SW 23.8 km/h 23.8 km/h 42 % 0 mm
15:16 0.2 °C -7.9 °C 34361.1 hPa NW 20.9 km/h 20.9 km/h 42 % 0 mm
15:21 0.2 °C -7.9 °C 34361.1 hPa WSW 26.9 km/h 26.9 km/h 42 % 0 mm
15:26 0 °C -8.1 °C 34361.1 hPa SW 23.8 km/h 23.8 km/h 42 % 0 mm
15:31 -0.1 °C -7.9 °C 34361.1 hPa SW 18.3 km/h 18.3 km/h 43 % 0 mm
15:36 -0.1 °C -7.9 °C 34361.1 hPa WSW 35.7 km/h 35.7 km/h 43 % 0 mm
15:41 -0.1 °C -7.9 °C 34361.1 hPa West 22 km/h 22 km/h 43 % 0 mm
15:46 -0.2 °C -8 °C 34361.1 hPa SW 20.9 km/h 20.9 km/h 43 % 0 mm
15:51 0 °C -7.9 °C 34361.1 hPa SSW 29.8 km/h 29.8 km/h 43 % 0 mm
15:56 0.1 °C -7.8 °C 34327.3 hPa SW 17.9 km/h 17.9 km/h 43 % 0 mm
16:01 0.2 °C -7.7 °C 34327.3 hPa SW 15.6 km/h 15.6 km/h 43 % 0 mm
16:06 0 °C -8.1 °C 34327.3 hPa SSW 32.8 km/h 32.8 km/h 42 % 0 mm
16:11 0.2 °C -7.7 °C 34361.1 hPa WSW 26.9 km/h 26.9 km/h 43 % 0 mm
16:16 0.1 °C -8 °C 34361.1 hPa SW 20.9 km/h 20.9 km/h 42 % 0 mm
16:21 -0.1 °C -7.9 °C 34361.1 hPa SSW 22.5 km/h 22.5 km/h 43 % 0 mm
16:26 -0.1 °C -7.9 °C 34361.1 hPa SW 17.4 km/h 17.4 km/h 43 % 0 mm
16:27 -0.1 °C -7.9 °C 34361.1 hPa South 17.9 km/h 17.9 km/h 43 % 0 mm
16:32 -0.4 °C -8.3 °C 34361.1 hPa SSW 26.9 km/h 26.9 km/h 43 % 0 mm
16:37 -0.6 °C -8.4 °C 34361.1 hPa SW 26.9 km/h 26.9 km/h 43 % 0 mm
16:42 -0.4 °C -8.2 °C 34327.3 hPa SW 15.3 km/h 15.3 km/h 43 % 0 mm
16:47 -0.4 °C -8.2 °C 34327.3 hPa South 26.9 km/h 26.9 km/h 43 % 0 mm
16:52 -0.6 °C -8.4 °C 34327.3 hPa SSW 15 km/h 15 km/h 43 % 0 mm
16:57 -0.4 °C -8.3 °C 34327.3 hPa West 17.9 km/h 17.9 km/h 43 % 0 mm
17:02 -0.3 °C -8.2 °C 34327.3 hPa WSW 19.6 km/h 19.6 km/h 43 % 0 mm
17:07 -0.4 °C -8.3 °C 34327.3 hPa South 26.9 km/h 26.9 km/h 43 % 0 mm
17:12 -0.4 °C -8.2 °C 34327.3 hPa SW 11.9 km/h 11.9 km/h 43 % 0 mm
17:17 -0.5 °C -8.3 °C 34327.3 hPa South 26.9 km/h 26.9 km/h 43 % 0 mm
17:22 -0.6 °C -8.4 °C 34327.3 hPa South 25.9 km/h 25.9 km/h 43 % 0 mm
17:27 -0.7 °C -8.3 °C 34327.3 hPa WSW 20.9 km/h 20.9 km/h 44 % 0 mm
17:32 -0.5 °C -8.3 °C 34327.3 hPa SSW 11.9 km/h 11.9 km/h 43 % 0 mm
17:37 -0.4 °C -8.1 °C 34327.3 hPa ENE 17.9 km/h 17.9 km/h 44 % 0 mm
17:42 -0.7 °C -8.3 °C 34327.3 hPa WSW 32.8 km/h 32.8 km/h 44 % 0 mm
17:47 -0.9 °C -8.4 °C 34327.3 hPa SW 23.8 km/h 23.8 km/h 44 % 0 mm
17:52 -0.8 °C -8.2 °C 34327.3 hPa SW 17.9 km/h 17.9 km/h 45 % 0 mm
17:57 -1 °C -8.6 °C 34327.3 hPa SW 23.8 km/h 23.8 km/h 44 % 0 mm
18:02 -1.2 °C -8.6 °C 34327.3 hPa SW 18.3 km/h 18.3 km/h 45 % 0 mm
18:07 -1.3 °C -8.4 °C 34327.3 hPa WSW 17.9 km/h 17.9 km/h 46 % 0 mm
18:12 -1 °C -8.4 °C 34327.3 hPa SSE 11.9 km/h 11.9 km/h 45 % 0 mm
18:17 -1.2 °C -8.3 °C 34327.3 hPa WSW 17.9 km/h 17.9 km/h 46 % 0 mm
18:22 -1.4 °C -8.5 °C 34327.3 hPa SW 23.8 km/h 23.8 km/h 46 % 0 mm
18:27 -1.6 °C -8.7 °C 34327.3 hPa South 32.8 km/h 32.8 km/h 46 % 0 mm
18:32 -1.4 °C -8.4 °C 34327.3 hPa SW 15 km/h 15 km/h 47 % 0 mm
18:37 -1.4 °C -8.4 °C 34327.3 hPa South 19.6 km/h 19.6 km/h 47 % 0 mm
18:42 -1.6 °C -8.5 °C 34327.3 hPa SSW 15 km/h 15 km/h 47 % 0 mm
18:47 -1.8 °C -8.5 °C 34327.3 hPa SW 20.9 km/h 20.9 km/h 48 % 0 mm
18:52 -1.8 °C -8.6 °C 34327.3 hPa West 23.8 km/h 23.8 km/h 48 % 0 mm
18:57 -1.9 °C -8.7 °C 34327.3 hPa SSW 16.1 km/h 16.1 km/h 48 % 0 mm
19:02 -1.9 °C -8.7 °C 34327.3 hPa SSW 20.9 km/h 20.9 km/h 48 % 0 mm
19:07 -2.2 °C -8.8 °C 34327.3 hPa SW 11.9 km/h 11.9 km/h 48 % 0 mm
19:12 -2.2 °C -8.7 °C 34327.3 hPa South 17.9 km/h 17.9 km/h 49 % 0 mm
19:17 -2.2 °C -8.7 °C 34327.3 hPa SSW 17.9 km/h 17.9 km/h 49 % 0 mm
19:22 -2.2 °C -8.7 °C 34327.3 hPa South 11.9 km/h 11.9 km/h 49 % 0 mm
19:27 -2.3 °C -8.8 °C 34327.3 hPa SW 15 km/h 15 km/h 49 % 0 mm
19:32 -2.4 °C -8.8 °C 34327.3 hPa WSW 17.9 km/h 17.9 km/h 50 % 0 mm
19:37 -2.5 °C -8.8 °C 34327.3 hPa SSW 11.9 km/h 11.9 km/h 50 % 0 mm
19:42 -2.7 °C -8.8 °C 34327.3 hPa WSW 15 km/h 15 km/h 51 % 0 mm
19:47 -2.8 °C -8.9 °C 34327.3 hPa SSE 17.9 km/h 17.9 km/h 51 % 0 mm
19:52 -2.8 °C -8.6 °C 34327.3 hPa SW 15.6 km/h 15.6 km/h 53 % 0 mm
19:57 -3 °C -8.6 °C 34327.3 hPa SSW 11.9 km/h 11.9 km/h 54 % 0 mm
20:02 -3.1 °C -8.7 °C 34327.3 hPa WSW 16.1 km/h 16.1 km/h 54 % 0 mm
20:07 -3.1 °C -8.4 °C 34327.3 hPa SW 20.9 km/h 20.9 km/h 56 % 0 mm
20:12 -3.2 °C -8.5 °C 34327.3 hPa SW 23.8 km/h 23.8 km/h 56 % 0 mm
20:15 -5.3 °C -7.9 °C 34395 hPa Calm   7.7 km/h 75 % 0 mm
20:17 -3.3 °C -8.6 °C 34327.3 hPa SW 6 km/h 6 km/h 56 % 0 mm
20:22 -3.3 °C -8.4 °C 34327.3 hPa SSW 11.9 km/h 11.9 km/h 57 % 0 mm
20:25 -5.4 °C -8 °C 34395 hPa WSW 2.6 km/h 5.1 km/h 75 % 0 mm
20:27 -3.4 °C -8.3 °C 34327.3 hPa South 15 km/h 15 km/h 58 % 0 mm
20:32 -3.4 °C -8.6 °C 34327.3 hPa SSE 15 km/h 15 km/h 57 % 0 mm
20:35 -5.6 °C -8.1 °C 34395 hPa SW 2.6 km/h 5.1 km/h 76 % 0 mm
20:37 -3.6 °C -8.3 °C 34327.3 hPa SW 6 km/h 6 km/h 59 % 0 mm
20:42 -3.6 °C -8.4 °C 34327.3 hPa WSW 9 km/h 9 km/h 59 % 0 mm
20:45 -5.6 °C -7.9 °C 34361.1 hPa Calm   5.1 km/h 77 % 0 mm
20:47 -3.7 °C -8.5 °C 34327.3 hPa SW 9.8 km/h 9.8 km/h 59 % 0 mm
20:52 -3.8 °C -8.4 °C 34327.3 hPa WSW 6.3 km/h 6.3 km/h 60 % 0 mm
20:55 -5.7 °C -8 °C 34361.1 hPa SW 2.6 km/h 5.1 km/h 77 % 0 mm
20:57 -3.8 °C -8.4 °C 34327.3 hPa SW 9 km/h 9 km/h 60 % 0 mm
21:02 -3.9 °C -8.4 °C 34327.3 hPa SW 9 km/h 9 km/h 61 % 0 mm
21:05 -5.7 °C -8 °C 34395 hPa WSW 2.6 km/h 5.1 km/h 77 % 0 mm
21:07 -4 °C -8.3 °C 34327.3 hPa SW 15 km/h 15 km/h 62 % 0 mm
21:12 -4.1 °C -8.4 °C 34327.3 hPa SW 9 km/h 9 km/h 62 % 0 mm
21:15 -5.7 °C -7.9 °C 34395 hPa WSW 5.1 km/h 5.1 km/h 78 % 0 mm
21:17 -4.1 °C -8.3 °C 34327.3 hPa SW 9 km/h 9 km/h 63 % 0 mm
21:22 -4.2 °C -8.2 °C 34327.3 hPa SW 6.8 km/h 6.8 km/h 64 % 0 mm
21:25 -5.8 °C -7.9 °C 34395 hPa Calm   2.6 km/h 79 % 0 mm
21:27 -4.2 °C -8.2 °C 34361.1 hPa SW 6 km/h 6 km/h 64 % 0 mm
21:32 -4.3 °C -8.3 °C 34361.1 hPa SW 6 km/h 6 km/h 64 % 0 mm
21:35 -5.8 °C -7.8 °C 34395 hPa Calm   2.6 km/h 80 % 0 mm
21:37 -4.4 °C -8.4 °C 34361.1 hPa SW 9 km/h 9 km/h 64 % 0 mm
21:42 -4.4 °C -8.3 °C 34361.1 hPa SW 6.8 km/h 6.8 km/h 65 % 0 mm
21:45 -6 °C -8.2 °C 34395 hPa WNW 2.6 km/h 7.7 km/h 78 % 0 mm
21:47 -4.5 °C -8.1 °C 34361.1 hPa SW 3.1 km/h 3.1 km/h 67 % 0 mm
21:52 -4.5 °C -8.1 °C 34361.1 hPa SW 6 km/h 6 km/h 67 % 0 mm
21:55 -6.1 °C -8.3 °C 34395 hPa NNE 2.6 km/h 5.1 km/h 78 % 0 mm
21:57 -4.6 °C -8 °C 34361.1 hPa SW 6 km/h 6 km/h 68 % 0 mm
22:02 -4.6 °C -8.1 °C 34361.1 hPa WSW 6 km/h 6 km/h 68 % 0 mm
22:05 -6.2 °C -8.2 °C 34395 hPa Calm   5.1 km/h 80 % 0 mm
22:07 -4.6 °C -7.9 °C 34361.1 hPa SW 3.1 km/h 3.7 km/h 69 % 0 mm
22:12 -4.7 °C -8 °C 34361.1 hPa WSW 6 km/h 6 km/h 69 % 0 mm
22:15 -6.3 °C -8.3 °C 34361.1 hPa WSW 2.6 km/h 5.1 km/h 80 % 0 mm
22:17 -4.7 °C -8 °C 34361.1 hPa WSW 6 km/h 6 km/h 69 % 0 mm
22:22 -4.7 °C -8.1 °C 34361.1 hPa SW 6 km/h 6 km/h 69 % 0 mm
22:25 -6.4 °C -8.3 °C 34361.1 hPa Calm   5.1 km/h 81 % 0 mm
22:27 -4.8 °C -8 °C 34361.1 hPa SW 3.1 km/h   70 % 0 mm
22:32 -4.8 °C -8.1 °C 34361.1 hPa WSW 3.7 km/h   70 % 0 mm
22:35 -6.4 °C -8.3 °C 34361.1 hPa Calm   2.6 km/h 81 % 0 mm
22:37 -4.9 °C -8.1 °C 34361.1 hPa SW 3.1 km/h   70 % 0 mm
22:42 -4.9 °C -8.2 °C 34361.1 hPa SW 6 km/h 6 km/h 70 % 0 mm
22:45 -6.4 °C -8.3 °C 34361.1 hPa NNW 2.6 km/h 5.1 km/h 81 % 0 mm
22:47 -4.9 °C -8.2 °C 34361.1 hPa SW 6 km/h 6 km/h 70 % 0 mm
22:52 -5 °C -8.1 °C 34361.1 hPa Calm     71 % 0 mm
22:55 -6.4 °C -8.2 °C 34361.1 hPa Calm   5.1 km/h 82 % 0 mm
22:57 -5 °C -8.1 °C 34361.1 hPa WSW 4.2 km/h 4.2 km/h 71 % 0 mm
23:02 -5 °C -8.1 °C 34361.1 hPa WSW 4.2 km/h 4.2 km/h 71 % 0 mm
23:05 -6.4 °C -8.2 °C 34327.3 hPa NE 2.6 km/h 5.1 km/h 82 % 0 mm
23:07 -5 °C -7.9 °C 34361.1 hPa WSW 3.1 km/h   72 % 0 mm
23:12 -5 °C -7.9 °C 34361.1 hPa WSW 4.2 km/h 4.2 km/h 72 % 0 mm
23:15 -6.4 °C -8.2 °C 34327.3 hPa ENE 5.1 km/h 7.7 km/h 82 % 0 mm
23:17 -5 °C -7.9 °C 34361.1 hPa West 3.1 km/h 3.1 km/h 72 % 0 mm
23:22 -5.1 °C -8 °C 34361.1 hPa WSW 3.1 km/h   72 % 0 mm
23:25 -6.7 °C -8.7 °C 34327.3 hPa NE 7.7 km/h 10.3 km/h 80 % 0 mm
23:27 -5.1 °C -7.9 °C 34395 hPa Calm     73 % 0 mm
23:32 -5.1 °C -7.9 °C 34395 hPa Calm     73 % 0 mm
23:35 -6.8 °C -8.6 °C 34361.1 hPa WSW 5.1 km/h 7.7 km/h 82 % 0 mm
23:37 -5.2 °C -8 °C 34395 hPa Calm     73 % 0 mm
23:42 -5.2 °C -7.9 °C 34361.1 hPa Calm     74 % 0 mm
23:45 -6.7 °C -8.4 °C 34361.1 hPa Calm   5.1 km/h 83 % 0 mm
23:47 -5.2 °C -7.9 °C 34361.1 hPa Calm     74 % 0 mm
23:52 -5.2 °C -7.9 °C 34361.1 hPa Calm     74 % 0 mm
23:55 -6.5 °C -8.3 °C 34361.1 hPa West 5.1 km/h 7.7 km/h 82 % 0 mm
23:57 -5.2 °C -7.9 °C 34395 hPa Calm     74 % 0 mm
Meteo Sesrovires
Elogis d' Weather Underground - 1.5 mb

Guio original per  Jim McMurry - jmcmurry@mwt.net Adaptat per a la plantilla per  Wim van der Kuil - Leuven-Template.eu

Trobareu la nostra informacio del temps tambe a:

Weather Underground

AWEKAS